Time;durP1;ratioP1;P1;durP2;ratioP2;P2;SDS_P1;SDS_P2;PMS_P1;PMS_P2;Temp;Humidity;BMP_temperature;BMP_pressure;BME280_temperature;BME280_humidity;BME280_pressure;Samples;Min_cycle;Max_cycle;Signal;HPM_P1;HPM_P2
2022/07/21 00:01:29;;;;;;;6.93;2.92;;;19.90;99.90;;;;;;5023711;28;20029;-69
2022/07/21 00:03:54;;;;;;;9.05;3.00;;;20.00;99.90;;;;;;5028906;28;20484;-70
2022/07/21 00:06:20;;;;;;;6.50;3.20;;;20.00;99.90;;;;;;5031192;28;20117;-71
2022/07/21 00:08:45;;;;;;;5.32;3.55;;;19.90;99.90;;;;;;5030435;28;20140;-71
2022/07/21 00:11:11;;;;;;;7.47;3.60;;;20.00;99.90;;;;;;5031176;28;20037;-71
2022/07/21 00:13:37;;;;;;;4.88;2.78;;;19.90;99.90;;;;;;5030873;28;20041;-71
2022/07/21 00:16:03;;;;;;;5.05;3.00;;;19.90;99.90;;;;;;5030247;28;20501;-71
2022/07/21 00:18:29;;;;;;;5.22;2.47;;;19.90;99.90;;;;;;5030965;28;20474;-69
2022/07/21 00:20:56;;;;;;;8.10;3.30;;;19.90;99.90;;;;;;5030209;28;20068;-69
2022/07/21 00:23:23;;;;;;;6.00;3.10;;;19.80;99.90;;;;;;5030961;28;20033;-69
2022/07/21 00:25:50;;;;;;;6.45;3.38;;;19.80;99.90;;;;;;5030506;28;20033;-71
2022/07/21 00:28:16;;;;;;;5.40;2.38;;;19.80;99.90;;;;;;5030830;28;20131;-70
2022/07/21 00:30:41;;;;;;;7.13;2.75;;;19.90;99.90;;;;;;5029810;28;20116;-69
2022/07/21 00:33:07;;;;;;;7.22;3.10;;;19.80;99.90;;;;;;5030664;28;20481;-71
2022/07/21 00:35:34;;;;;;;4.13;2.70;;;19.80;99.90;;;;;;5029669;28;20052;-70
2022/07/21 00:37:59;;;;;;;5.18;2.67;;;19.80;99.90;;;;;;5030120;28;20033;-70
2022/07/21 00:40:25;;;;;;;5.45;3.33;;;19.80;99.90;;;;;;5029165;28;20520;-69
2022/07/21 00:42:51;;;;;;;5.15;3.00;;;19.80;99.90;;;;;;5029668;28;20136;-70
2022/07/21 00:45:17;;;;;;;4.82;2.38;;;19.80;99.90;;;;;;5030932;28;20541;-70
2022/07/21 00:47:43;;;;;;;6.78;3.00;;;19.80;99.90;;;;;;5029792;28;20033;-70
2022/07/21 00:50:14;;;;;;;8.02;2.72;;;19.80;99.90;;;;;;5029254;28;20026;-71
2022/07/21 00:52:40;;;;;;;3.97;2.47;;;19.80;99.90;;;;;;5028545;28;20029;-69
2022/07/21 00:55:09;;;;;;;5.20;2.70;;;19.80;99.90;;;;;;5028621;28;20390;-71
2022/07/21 00:57:35;;;;;;;4.80;2.90;;;19.80;99.90;;;;;;5029103;28;20025;-70
2022/07/21 01:00:06;;;;;;;4.30;2.40;;;19.80;99.90;;;;;;5029600;28;20107;-71
2022/07/21 01:02:33;;;;;;;6.38;2.70;;;19.80;99.90;;;;;;5028737;28;20506;-69
2022/07/21 01:04:59;;;;;;;3.80;2.40;;;19.80;99.90;;;;;;5029040;28;20034;-71
2022/07/21 01:07:24;;;;;;;7.68;3.05;;;19.70;99.90;;;;;;5029959;28;20517;-71
2022/07/21 01:09:50;;;;;;;5.32;2.53;;;19.80;99.90;;;;;;5027964;28;20036;-71
2022/07/21 01:12:16;;;;;;;5.85;3.35;;;19.70;99.90;;;;;;5030117;28;20037;-70
2022/07/21 01:14:41;;;;;;;5.03;2.80;;;19.80;99.90;;;;;;5028654;28;20095;-69
2022/07/21 01:17:07;;;;;;;4.30;2.70;;;19.70;99.90;;;;;;5030114;28;20493;-71
2022/07/21 01:19:33;;;;;;;4.90;2.90;;;19.70;99.90;;;;;;5029716;28;20025;-70
2022/07/21 01:21:59;;;;;;;4.07;2.80;;;19.70;99.90;;;;;;5028631;28;20480;-70
2022/07/21 01:24:24;;;;;;;5.38;3.03;;;19.70;99.90;;;;;;5029606;28;20025;-71
2022/07/21 01:26:52;;;;;;;5.22;3.30;;;19.70;99.90;;;;;;5030339;28;20025;-71
2022/07/21 01:29:18;;;;;;;5.53;3.17;;;19.70;99.90;;;;;;5025867;28;20034;-69
2022/07/21 01:31:45;;;;;;;7.28;3.20;;;19.70;99.90;;;;;;5028394;28;20044;-70
2022/07/21 01:34:11;;;;;;;4.90;2.95;;;19.70;99.90;;;;;;5027793;28;20037;-71
2022/07/21 01:36:37;;;;;;;6.13;3.00;;;19.70;99.90;;;;;;5028071;28;20095;-71
2022/07/21 01:41:49;;;;;;;9.13;3.45;;;19.60;99.90;;;;;;5024338;28;20036;-69
2022/07/21 01:44:15;;;;;;;5.30;3.05;;;19.60;99.90;;;;;;5028962;28;20445;-71
2022/07/21 01:46:46;;;;;;;7.57;3.67;;;19.50;99.90;;;;;;5029003;28;20084;-71
2022/07/21 01:49:14;;;;;;;6.47;3.55;;;19.50;99.90;;;;;;5029023;28;20048;-70
2022/07/21 01:51:40;;;;;;;7.13;3.35;;;19.50;99.90;;;;;;5027573;28;20045;-71
2022/07/21 01:54:07;;;;;;;6.47;3.55;;;19.50;99.90;;;;;;5028793;28;20041;-71
2022/07/21 01:56:34;;;;;;;6.15;3.25;;;19.50;99.90;;;;;;5029140;28;20037;-71
2022/07/21 01:58:59;;;;;;;8.82;3.45;;;19.50;99.90;;;;;;5028518;28;20112;-70
2022/07/21 02:01:28;;;;;;;8.52;4.03;;;19.50;99.90;;;;;;5027092;28;20120;-72
2022/07/21 02:03:55;;;;;;;7.63;4.07;;;19.50;99.90;;;;;;5025744;28;20041;-70
2022/07/21 02:06:21;;;;;;;8.98;4.03;;;19.50;99.90;;;;;;5027476;28;20571;-70
2022/07/21 02:08:47;;;;;;;9.88;4.18;;;19.40;99.90;;;;;;5026209;28;20041;-71
2022/07/21 02:11:14;;;;;;;9.07;4.28;;;19.50;99.90;;;;;;5027159;28;20041;-68
2022/07/21 02:13:40;;;;;;;7.07;4.07;;;19.40;99.90;;;;;;5026896;28;20089;-71
2022/07/21 02:16:06;;;;;;;7.63;3.95;;;19.50;99.90;;;;;;5028597;28;20437;-69
2022/07/21 02:18:32;;;;;;;7.97;4.55;;;19.40;99.90;;;;;;5028836;28;20490;-71
2022/07/21 02:20:58;;;;;;;9.27;4.93;;;19.50;99.90;;;;;;5028052;28;20034;-69
2022/07/21 02:23:24;;;;;;;7.50;4.50;;;19.40;99.90;;;;;;5028629;28;20060;-71
2022/07/21 02:25:52;;;;;;;8.73;4.63;;;19.40;99.90;;;;;;5027558;28;20448;-69
2022/07/21 02:28:18;;;;;;;8.27;4.57;;;19.40;99.90;;;;;;5027334;28;20037;-70
2022/07/21 02:30:43;;;;;;;7.38;4.28;;;19.40;99.90;;;;;;5030282;28;20045;-70
2022/07/21 02:33:09;;;;;;;9.02;5.38;;;19.40;99.90;;;;;;5028411;28;20475;-72
2022/07/21 02:35:35;;;;;;;10.18;4.57;;;19.30;99.90;;;;;;5028749;28;20038;-72
2022/07/21 02:38:00;;;;;;;9.50;5.05;;;19.30;99.90;;;;;;5027941;28;20385;-72
2022/07/21 02:40:26;;;;;;;8.32;4.13;;;19.30;99.90;;;;;;5028718;28;20049;-72
2022/07/21 02:42:52;;;;;;;9.25;5.20;;;19.30;99.90;;;;;;5027593;28;20041;-71
2022/07/21 02:45:17;;;;;;;8.98;4.97;;;19.30;99.90;;;;;;5026903;28;20033;-72
2022/07/21 02:47:58;;;;;;;8.50;5.15;;;19.30;99.90;;;;;;5026486;28;20041;-71
2022/07/21 02:50:28;;;;;;;12.18;5.15;;;19.30;99.90;;;;;;5026060;28;20056;-71
2022/07/21 02:52:56;;;;;;;9.77;5.50;;;19.30;99.90;;;;;;5027579;28;20041;-71
2022/07/21 02:55:22;;;;;;;10.52;6.15;;;19.30;99.90;;;;;;5034424;28;20022;-71
2022/07/21 02:57:47;;;;;;;9.95;5.65;;;19.30;99.90;;;;;;5033960;28;20425;-72
2022/07/21 03:00:13;;;;;;;9.55;5.68;;;19.30;99.90;;;;;;5034974;28;20048;-71
2022/07/21 03:02:39;;;;;;;10.40;5.35;;;19.30;99.90;;;;;;5034902;28;20029;-70
2022/07/21 03:05:05;;;;;;;12.60;5.80;;;19.30;99.90;;;;;;5032708;28;20025;-72
2022/07/21 03:07:30;;;;;;;13.75;6.63;;;19.30;99.90;;;;;;5035135;28;20080;-71
2022/07/21 03:09:56;;;;;;;8.65;5.32;;;19.30;99.90;;;;;;5032616;28;20523;-71
2022/07/21 03:12:22;;;;;;;11.52;5.80;;;19.40;99.90;;;;;;5032836;28;20034;-70
2022/07/21 03:14:47;;;;;;;10.00;5.65;;;19.40;99.90;;;;;;5033982;28;20017;-70
2022/07/21 03:17:13;;;;;;;16.67;5.97;;;19.40;99.90;;;;;;5034931;28;20371;-71
2022/07/21 03:19:39;;;;;;;10.60;6.40;;;19.40;99.90;;;;;;5033509;28;20076;-70
2022/07/21 03:22:04;;;;;;;11.98;5.78;;;19.30;99.90;;;;;;5034055;28;20056;-71
2022/07/21 03:24:30;;;;;;;9.95;6.25;;;19.30;99.90;;;;;;5034581;28;20025;-71
2022/07/21 03:26:56;;;;;;;12.25;6.47;;;19.30;99.90;;;;;;5034109;28;20497;-71
2022/07/21 03:29:22;;;;;;;9.85;6.15;;;19.30;99.90;;;;;;5033271;28;20113;-71
2022/07/21 03:31:47;;;;;;;11.65;6.72;;;19.30;99.90;;;;;;5037254;28;20116;-71
2022/07/21 03:34:13;;;;;;;10.90;5.82;;;19.30;99.90;;;;;;5034571;28;20493;-71
2022/07/21 03:36:38;;;;;;;12.98;6.43;;;19.30;99.90;;;;;;5030893;28;20079;-71
2022/07/21 03:39:04;;;;;;;10.23;6.13;;;19.30;99.90;;;;;;5033927;28;20030;-71
2022/07/21 03:41:31;;;;;;;9.68;6.03;;;19.30;99.90;;;;;;5034678;28;20141;-71
2022/07/21 03:43:56;;;;;;;11.73;6.72;;;19.30;99.90;;;;;;5033465;28;20112;-72
2022/07/21 03:46:22;;;;;;;11.30;6.95;;;19.30;99.90;;;;;;5034798;28;20167;-72
2022/07/21 03:48:48;;;;;;;12.65;7.35;;;19.30;99.90;;;;;;5033823;28;20091;-71
2022/07/21 03:51:13;;;;;;;10.15;6.60;;;19.20;99.90;;;;;;5034535;28;20033;-72
2022/07/21 03:53:39;;;;;;;11.93;6.75;;;19.20;99.90;;;;;;5033282;28;20048;-70
2022/07/21 03:56:05;;;;;;;14.05;7.22;;;19.20;99.90;;;;;;5033692;28;20029;-71
2022/07/21 03:58:30;;;;;;;13.32;6.78;;;19.20;99.90;;;;;;5034653;28;20614;-71
2022/07/21 04:00:56;;;;;;;11.68;7.03;;;19.20;99.90;;;;;;5033536;28;20033;-71
2022/07/21 04:03:21;;;;;;;11.73;7.18;;;19.20;99.90;;;;;;5034283;28;20037;-71
2022/07/21 04:05:47;;;;;;;12.57;6.75;;;19.20;99.90;;;;;;5031017;28;20040;-71
2022/07/21 04:08:13;;;;;;;10.85;6.47;;;19.20;99.90;;;;;;5031384;28;20095;-71
2022/07/21 04:10:40;;;;;;;15.30;7.43;;;19.20;99.90;;;;;;5029747;28;20044;-70
2022/07/21 04:13:09;;;;;;;13.63;7.65;;;19.20;99.90;;;;;;5030509;28;20033;-72
2022/07/21 04:15:35;;;;;;;11.73;6.82;;;19.20;99.90;;;;;;5031276;28;20034;-72
2022/07/21 04:18:01;;;;;;;12.45;7.15;;;19.20;99.90;;;;;;5030154;28;20147;-71
2022/07/21 04:20:26;;;;;;;15.13;8.23;;;19.20;99.90;;;;;;5030986;28;20059;-71
2022/07/21 04:22:53;;;;;;;13.02;7.28;;;19.20;99.90;;;;;;5029826;28;20040;-71
2022/07/21 04:25:19;;;;;;;16.77;7.38;;;19.20;99.90;;;;;;5035283;28;20579;-72
2022/07/21 04:27:46;;;;;;;14.38;7.03;;;19.30;99.90;;;;;;5030192;28;20073;-71
2022/07/21 04:30:15;;;;;;;14.32;7.95;;;19.30;99.90;;;;;;5032509;28;20025;-71
2022/07/21 04:32:40;;;;;;;12.13;7.05;;;19.30;99.90;;;;;;5029809;28;20041;-72
2022/07/21 04:35:07;;;;;;;16.80;8.77;;;19.30;99.90;;;;;;5030030;28;20029;-71
2022/07/21 04:37:33;;;;;;;16.42;8.10;;;19.30;99.90;;;;;;5030462;28;20036;-72
2022/07/21 04:39:59;;;;;;;14.05;7.88;;;19.30;99.90;;;;;;5028058;28;20040;-71
2022/07/21 04:42:24;;;;;;;17.05;8.57;;;19.30;99.90;;;;;;5030355;28;20108;-70
2022/07/21 04:44:50;;;;;;;17.35;8.63;;;19.40;99.90;;;;;;5027245;28;20536;-71
2022/07/21 04:47:16;;;;;;;14.13;8.23;;;19.40;99.90;;;;;;5027819;28;20087;-72
2022/07/21 04:49:42;;;;;;;17.83;8.30;;;19.30;99.90;;;;;;5029412;28;20041;-70
2022/07/21 04:52:07;;;;;;;18.90;8.52;;;19.30;99.90;;;;;;5028779;28;20453;-71
2022/07/21 04:54:33;;;;;;;19.10;8.68;;;19.30;99.90;;;;;;5029558;28;20049;-72
2022/07/21 04:57:02;;;;;;;16.20;8.55;;;19.30;99.90;;;;;;5029543;28;20115;-72
2022/07/21 04:59:28;;;;;;;16.25;8.63;;;19.30;99.90;;;;;;5030725;28;20029;-72
2022/07/21 05:01:53;;;;;;;15.07;8.63;;;19.40;99.90;;;;;;5027107;28;20034;-72
2022/07/21 05:04:19;;;;;;;20.15;10.05;;;19.30;99.90;;;;;;5028881;28;20115;-73
2022/07/21 05:06:44;;;;;;;16.40;8.02;;;19.30;99.90;;;;;;5028285;28;20040;-72
2022/07/21 05:09:10;;;;;;;17.90;9.10;;;19.40;99.90;;;;;;5027027;28;20041;-72
2022/07/21 05:11:36;;;;;;;20.65;9.77;;;19.40;99.90;;;;;;5029759;28;20026;-72
2022/07/21 05:14:01;;;;;;;16.80;8.20;;;19.40;99.90;;;;;;5028323;28;20048;-72
2022/07/21 05:16:27;;;;;;;17.42;8.57;;;19.50;99.90;;;;;;5026592;28;20048;-72
2022/07/21 05:18:52;;;;;;;15.93;8.00;;;19.50;99.90;;;;;;5024987;28;20485;-72
2022/07/21 05:21:18;;;;;;;16.20;8.65;;;19.60;99.90;;;;;;5029457;28;20028;-73
2022/07/21 05:23:45;;;;;;;16.00;7.85;;;19.60;99.90;;;;;;5025152;28;20041;-72
2022/07/21 05:26:12;;;;;;;16.70;8.55;;;19.70;99.90;;;;;;5031007;28;20530;-72
2022/07/21 05:28:37;;;;;;;16.75;7.25;;;19.70;99.90;;;;;;5029353;28;20065;-72
2022/07/21 05:31:03;;;;;;;15.85;8.73;;;19.80;99.90;;;;;;5028151;28;20033;-72
2022/07/21 05:33:29;;;;;;;13.35;7.45;;;19.90;99.90;;;;;;5028890;28;20029;-72
2022/07/21 05:35:54;;;;;;;14.13;7.38;;;20.00;99.90;;;;;;5027333;28;20091;-71
2022/07/21 05:38:20;;;;;;;11.38;6.85;;;20.00;99.90;;;;;;5026839;28;20033;-72
2022/07/21 05:40:45;;;;;;;14.63;7.40;;;20.10;99.90;;;;;;5024204;28;20121;-72
2022/07/21 05:43:11;;;;;;;12.57;6.88;;;20.10;99.90;;;;;;5027830;28;20390;-72
2022/07/21 05:45:36;;;;;;;16.95;7.22;;;20.20;99.90;;;;;;5029163;28;20030;-72
2022/07/21 05:48:02;;;;;;;12.88;6.65;;;20.20;99.90;;;;;;5027941;28;20044;-72
2022/07/21 05:50:28;;;;;;;16.58;7.47;;;20.20;99.90;;;;;;5026723;28;20486;-71
2022/07/21 05:52:53;;;;;;;15.32;7.78;;;20.20;99.90;;;;;;5027099;28;20132;-71
2022/07/21 05:55:19;;;;;;;15.20;7.18;;;20.20;99.90;;;;;;5025144;28;20033;-71
2022/07/21 05:57:44;;;;;;;18.73;8.13;;;20.30;99.90;;;;;;5028304;28;20032;-70
2022/07/21 06:00:10;;;;;;;14.65;7.25;;;20.30;99.90;;;;;;5026167;28;20037;-71
2022/07/21 06:02:36;;;;;;;17.40;7.88;;;20.30;99.90;;;;;;5027528;28;20033;-72
2022/07/21 06:05:02;;;;;;;16.10;7.13;;;20.30;99.90;;;;;;5025785;28;20480;-72
2022/07/21 06:07:27;;;;;;;16.55;8.05;;;20.30;99.90;;;;;;5028316;28;20383;-72
2022/07/21 06:09:53;;;;;;;20.45;7.82;;;20.40;99.90;;;;;;5027274;28;20041;-73
2022/07/21 06:12:19;;;;;;;14.43;6.82;;;20.40;99.90;;;;;;5027305;28;20036;-72
2022/07/21 06:14:44;;;;;;;16.30;7.90;;;20.40;99.90;;;;;;5025762;28;20059;-72
2022/07/21 06:17:10;;;;;;;17.77;8.60;;;20.40;99.90;;;;;;5027558;28;20040;-72
2022/07/21 06:19:35;;;;;;;17.17;8.23;;;20.40;99.90;;;;;;5026206;28;20023;-72
2022/07/21 06:22:04;;;;;;;21.27;9.00;;;20.30;99.90;;;;;;5026739;28;20034;-72
2022/07/21 06:24:29;;;;;;;24.38;9.18;;;20.30;99.90;;;;;;5025759;28;20038;-72
2022/07/21 06:26:55;;;;;;;16.33;7.97;;;20.30;99.90;;;;;;5027341;28;20501;-72
2022/07/21 06:29:22;;;;;;;27.45;9.45;;;20.20;99.90;;;;;;5024856;28;20428;-72
2022/07/21 06:31:47;;;;;;;21.88;8.98;;;20.20;99.90;;;;;;5026446;28;20060;-73
2022/07/21 06:34:13;;;;;;;19.08;9.13;;;20.20;99.90;;;;;;5026932;28;20497;-72
2022/07/21 06:36:39;;;;;;;22.23;9.20;;;20.20;99.90;;;;;;5026285;28;20056;-71
2022/07/21 06:39:05;;;;;;;21.60;8.57;;;20.20;99.90;;;;;;5026033;28;20065;-72
2022/07/21 06:41:30;;;;;;;21.33;9.57;;;20.20;99.90;;;;;;5027088;28;20386;-72
2022/07/21 06:43:56;;;;;;;22.95;10.25;;;20.30;99.90;;;;;;5026219;28;20044;-72
2022/07/21 06:46:22;;;;;;;23.00;9.52;;;20.40;99.90;;;;;;5025858;28;20033;-72
2022/07/21 06:48:47;;;;;;;29.77;10.52;;;20.40;99.90;;;;;;5025773;28;20516;-72
2022/07/21 06:51:13;;;;;;;24.52;9.80;;;20.50;99.90;;;;;;5026966;28;20059;-72
2022/07/21 06:53:38;;;;;;;24.50;9.65;;;20.50;99.90;;;;;;5026468;28;20033;-72
2022/07/21 06:56:04;;;;;;;20.13;10.00;;;20.60;99.90;;;;;;5023661;28;20037;-72
2022/07/21 06:58:31;;;;;;;28.35;11.10;;;20.60;99.90;;;;;;5024673;28;20038;-72
2022/07/21 07:00:56;;;;;;;26.52;10.02;;;20.60;99.90;;;;;;5023142;28;20048;-72
2022/07/21 07:03:22;;;;;;;23.88;10.98;;;20.60;99.90;;;;;;5025476;28;20022;-71
2022/07/21 07:05:48;;;;;;;29.35;10.52;;;20.50;99.90;;;;;;5026359;28;20378;-71
2022/07/21 07:08:15;;;;;;;30.98;11.85;;;20.50;99.90;;;;;;5024978;28;20087;-72
2022/07/21 07:10:41;;;;;;;29.48;11.18;;;20.40;99.90;;;;;;5025847;28;20036;-71
2022/07/21 07:13:07;;;;;;;32.90;11.07;;;20.30;99.90;;;;;;5025992;28;20046;-72
2022/07/21 07:15:33;;;;;;;26.48;10.75;;;20.30;99.90;;;;;;5027098;28;20029;-72
2022/07/21 07:17:58;;;;;;;30.75;12.43;;;20.20;99.90;;;;;;5026011;28;20045;-72
2022/07/21 07:20:24;;;;;;;30.63;12.23;;;20.20;99.90;;;;;;5024895;28;20033;-72
2022/07/21 07:22:50;;;;;;;27.38;12.35;;;20.20;99.90;;;;;;5025552;28;20037;-73
2022/07/21 07:25:16;;;;;;;28.70;12.43;;;20.20;99.90;;;;;;5028335;28;20040;-71
2022/07/21 07:27:43;;;;;;;29.08;12.73;;;20.20;99.90;;;;;;5025356;28;20037;-71
2022/07/21 07:30:09;;;;;;;31.85;13.52;;;20.20;99.90;;;;;;5025538;28;20033;-72
2022/07/21 07:32:35;;;;;;;29.33;11.57;;;20.10;99.90;;;;;;5026174;28;20030;-71
2022/07/21 07:35:01;;;;;;;35.00;12.20;;;20.10;99.90;;;;;;5024376;28;20390;-72
2022/07/21 07:37:26;;;;;;;30.73;12.77;;;20.10;99.90;;;;;;5026104;28;20029;-72
2022/07/21 07:39:52;;;;;;;32.45;12.27;;;20.10;99.90;;;;;;5025463;28;20037;-72
2022/07/21 07:42:17;;;;;;;31.15;11.48;;;20.10;99.90;;;;;;5029722;28;20021;-71
2022/07/21 07:44:43;;;;;;;32.28;10.95;;;20.00;99.90;;;;;;5027716;28;20144;-72
2022/07/21 07:47:09;;;;;;;32.03;11.85;;;20.00;99.90;;;;;;5030323;28;20033;-71
2022/07/21 07:49:34;;;;;;;31.67;12.32;;;20.00;99.90;;;;;;5030565;28;20025;-72
2022/07/21 07:52:02;;;;;;;28.92;12.38;;;20.00;99.90;;;;;;5028873;28;20046;-72
2022/07/21 07:54:28;;;;;;;29.60;11.27;;;19.90;99.90;;;;;;5028670;28;20025;-71
2022/07/21 07:56:53;;;;;;;25.50;11.60;;;19.80;99.90;;;;;;5028188;28;20025;-71
2022/07/21 07:59:19;;;;;;;35.10;12.38;;;19.80;99.90;;;;;;5028486;28;20438;-71
2022/07/21 08:01:45;;;;;;;23.63;11.30;;;19.70;99.90;;;;;;5027735;28;20029;-71
2022/07/21 08:04:10;;;;;;;24.77;10.80;;;19.60;99.90;;;;;;5028588;28;20041;-72
2022/07/21 08:06:36;;;;;;;22.65;10.68;;;19.50;99.90;;;;;;5029118;28;20084;-71
2022/07/21 08:09:01;;;;;;;17.98;9.32;;;19.40;99.90;;;;;;5027327;28;20045;-71
2022/07/21 08:11:27;;;;;;;22.55;9.30;;;19.40;99.90;;;;;;5028121;28;20041;-71
2022/07/21 08:13:52;;;;;;;20.83;10.27;;;19.30;99.90;;;;;;5028493;28;20041;-72
2022/07/21 08:16:18;;;;;;;21.58;9.05;;;19.30;99.90;;;;;;5029396;28;20032;-72
2022/07/21 08:18:44;;;;;;;15.70;7.70;;;19.20;99.90;;;;;;5027975;28;20036;-71
2022/07/21 08:21:10;;;;;;;17.70;8.13;;;19.20;99.90;;;;;;5029115;28;20033;-71
2022/07/21 08:23:36;;;;;;;16.35;7.53;;;19.20;99.90;;;;;;5029527;28;20083;-71
2022/07/21 08:26:02;;;;;;;18.80;7.75;;;19.10;99.90;;;;;;5027530;28;20025;-72
2022/07/21 08:28:28;;;;;;;20.27;7.47;;;19.10;99.90;;;;;;5028188;28;20030;-72
2022/07/21 08:30:54;;;;;;;11.95;5.75;;;19.00;99.90;;;;;;5029737;28;20046;-71
2022/07/21 08:33:19;;;;;;;9.35;4.18;;;19.00;99.90;;;;;;5029274;28;20056;-72
2022/07/21 08:35:45;;;;;;;8.30;4.45;;;19.00;99.90;;;;;;5027248;28;20113;-71
2022/07/21 08:38:11;;;;;;;5.85;2.78;;;19.00;99.90;;;;;;5028188;28;20045;-71
2022/07/21 08:40:41;;;;;;;11.88;3.00;;;19.00;99.90;;;;;;5028260;28;20056;-70
2022/07/21 08:43:08;;;;;;;6.65;3.13;;;18.90;99.90;;;;;;5027314;28;20034;-71
2022/07/21 08:45:35;;;;;;;5.50;3.03;;;18.90;99.90;;;;;;5027060;28;20040;-71
2022/07/21 08:48:01;;;;;;;5.88;2.83;;;18.90;99.90;;;;;;5027658;28;20045;-73
2022/07/21 08:50:32;;;;;;;6.85;3.55;;;18.90;99.90;;;;;;5027219;28;20022;-71
2022/07/21 08:52:58;;;;;;;5.95;2.95;;;18.90;99.90;;;;;;5025580;28;20029;-72
2022/07/21 08:55:24;;;;;;;6.72;3.67;;;18.90;99.90;;;;;;5027957;28;20152;-71
2022/07/21 08:57:50;;;;;;;6.57;3.35;;;18.90;99.90;;;;;;5026583;28;20403;-72
2022/07/21 09:00:16;;;;;;;6.63;3.03;;;18.90;99.90;;;;;;5030293;28;20033;-71
2022/07/21 09:02:41;;;;;;;5.43;3.35;;;18.90;99.90;;;;;;5030025;28;20029;-71
2022/07/21 09:05:09;;;;;;;5.70;3.25;;;19.00;99.90;;;;;;5028852;28;20025;-71
2022/07/21 09:07:50;;;;;;;7.07;2.95;;;18.90;99.90;;;;;;5035636;28;20060;-72
2022/07/21 09:10:24;;;;;;;4.90;2.63;;;18.90;99.90;;;;;;5018439;28;20033;-71
2022/07/21 09:13:02;;;;;;;5.47;3.10;;;19.00;99.90;;;;;;5032643;28;20025;-71
2022/07/21 09:15:31;;;;;;;5.82;3.53;;;18.90;99.90;;;;;;5031504;28;20039;-71
2022/07/21 09:18:16;;;;;;;4.25;3.00;;;18.90;99.90;;;;;;5025832;28;20401;-71
2022/07/21 09:20:48;;;;;;;4.93;2.75;;;18.90;99.90;;;;;;5026321;28;20030;-71
2022/07/21 09:23:16;;;;;;;6.07;2.67;;;18.90;99.90;;;;;;5028974;28;20088;-72
2022/07/21 09:25:50;;;;;;;5.78;2.83;;;18.90;99.90;;;;;;5028417;28;20034;-71
2022/07/21 09:28:17;;;;;;;7.30;2.42;;;18.90;99.90;;;;;;5029016;28;20053;-72
2022/07/21 09:30:51;;;;;;;4.43;2.42;;;18.90;99.90;;;;;;5027869;28;20057;-70
2022/07/21 09:33:28;;;;;;;4.88;2.45;;;18.90;99.90;;;;;;5029330;28;20436;-72
2022/07/21 09:36:00;;;;;;;4.25;2.45;;;18.80;99.90;;;;;;5025517;28;20057;-72
2022/07/21 09:38:27;;;;;;;6.15;2.40;;;18.80;99.90;;;;;;5028866;28;20048;-72
2022/07/21 09:40:53;;;;;;;4.50;2.65;;;18.80;99.90;;;;;;5026342;28;20045;-72
2022/07/21 09:43:33;;;;;;;5.55;2.63;;;18.80;99.90;;;;;;5026011;28;20031;-73
2022/07/21 09:46:01;;;;;;;8.07;2.90;;;18.80;99.90;;;;;;5027324;28;20073;-72
2022/07/21 09:48:38;;;;;;;7.15;3.42;;;18.80;99.90;;;;;;5028245;28;20493;-72
2022/07/21 09:51:19;;;;;;;5.40;3.10;;;18.80;99.90;;;;;;5026513;28;20045;-72
2022/07/21 09:54:07;;;;;;;12.93;3.50;;;18.80;99.90;;;;;;5023150;28;20045;-71
2022/07/21 09:56:36;;;;;;;7.72;3.13;;;18.70;99.90;;;;;;5027667;28;20026;-71
2022/07/21 09:59:03;;;;;;;5.80;3.30;;;18.70;99.90;;;;;;5025045;28;20065;-71
2022/07/21 10:01:29;;;;;;;6.95;3.38;;;18.70;99.90;;;;;;5029756;28;20025;-71
2022/07/21 10:03:56;;;;;;;7.15;3.15;;;18.70;99.90;;;;;;5024879;28;20037;-72
2022/07/21 10:06:31;;;;;;;7.80;3.45;;;18.70;99.90;;;;;;5024244;28;20041;-72
2022/07/21 10:08:58;;;;;;;9.35;3.72;;;18.70;99.90;;;;;;5024151;28;20045;-70
2022/07/21 10:11:26;;;;;;;7.95;3.38;;;18.70;99.90;;;;;;5028393;28;20042;-72
2022/07/21 10:13:52;;;;;;;9.27;3.85;;;18.70;99.90;;;;;;5024924;28;20095;-72
2022/07/21 10:16:18;;;;;;;8.45;3.67;;;18.80;99.90;;;;;;5027211;28;20064;-72
2022/07/21 10:19:10;;;;;;;11.05;3.85;;;18.80;99.90;;;;;;5020011;28;20034;-71
2022/07/21 10:21:46;;;;;;;9.40;3.15;;;18.80;99.90;;;;;;5021188;28;20057;-71
2022/07/21 10:24:12;;;;;;;12.18;3.85;;;18.80;99.90;;;;;;5023446;28;20036;-72
2022/07/21 10:26:59;;;;;;;9.43;3.92;;;18.80;99.90;;;;;;5026371;28;20037;-72
2022/07/21 10:29:52;;;;;;;10.07;3.85;;;18.70;99.90;;;;;;5017508;28;20140;-72
2022/07/21 10:32:24;;;;;;;15.23;4.38;;;18.70;99.90;;;;;;5024917;28;20033;-72
2022/07/21 10:34:50;;;;;;;10.82;4.35;;;18.70;99.90;;;;;;5020191;28;20216;-73
2022/07/21 10:37:41;;;;;;;13.50;4.15;;;18.70;99.90;;;;;;5022424;28;20525;-72
2022/07/21 10:40:26;;;;;;;10.55;4.10;;;18.70;99.90;;;;;;5023857;28;20033;-72
2022/07/21 10:43:01;;;;;;;9.77;4.28;;;18.70;99.90;;;;;;5023472;28;20044;-72
2022/07/21 10:45:38;;;;;;;9.43;3.80;;;18.70;99.90;;;;;;5025296;28;20131;-73
2022/07/21 10:48:28;;;;;;;14.30;4.43;;;18.70;99.90;;;;;;5023140;28;20045;-72
2022/07/21 10:50:58;;;;;;;8.00;3.65;;;18.70;99.90;;;;;;5022083;28;20106;-73
2022/07/21 10:53:23;;;;;;;12.73;3.90;;;18.70;99.90;;;;;;5028279;28;20029;-73
2022/07/21 10:55:51;;;;;;;7.15;3.35;;;18.70;99.90;;;;;;5024330;28;20684;-73
2022/07/21 10:58:24;;;;;;;5.43;3.03;;;18.70;99.90;;;;;;5026541;28;20401;-72
2022/07/21 11:01:01;;;;;;;7.20;2.90;;;18.70;99.90;;;;;;5022441;28;20045;-71
2022/07/21 11:03:30;;;;;;;6.10;3.30;;;18.60;99.90;;;;;;5028280;28;20029;-72
2022/07/21 11:06:16;;;;;;;6.25;2.88;;;18.60;99.90;;;;;;5025590;28;20037;-72
2022/07/21 11:08:49;;;;;;;5.30;2.95;;;18.60;99.90;;;;;;5026426;28;20076;-71
2022/07/21 11:11:14;;;;;;;8.90;3.22;;;18.60;99.90;;;;;;5024730;28;20509;-73
2022/07/21 11:14:08;;;;;;;9.25;3.13;;;18.60;99.90;;;;;;5026773;28;20060;-72
2022/07/21 11:16:43;;;;;;;7.90;3.10;;;18.60;99.90;;;;;;5027826;28;20117;-72
2022/07/21 11:19:30;;;;;;;5.25;2.72;;;18.60;99.90;;;;;;5030031;28;20083;-73
2022/07/21 11:21:58;;;;;;;6.00;2.05;;;18.60;99.90;;;;;;5029519;28;20022;-72
2022/07/21 11:24:26;;;;;;;6.43;2.47;;;18.60;99.90;;;;;;5027138;28;20129;-72
2022/07/21 11:27:01;;;;;;;6.38;2.03;;;18.80;99.90;;;;;;5028330;28;20095;-73
2022/07/21 11:29:29;;;;;;;8.07;3.00;;;18.80;99.90;;;;;;5032338;28;20083;-73
2022/07/21 11:31:56;;;;;;;4.05;2.28;;;18.90;99.90;;;;;;5029370;28;20044;-72
2022/07/21 11:34:22;;;;;;;5.15;2.65;;;19.00;99.90;;;;;;5031076;28;20144;-72
2022/07/21 11:36:58;;;;;;;5.43;2.17;;;19.00;99.90;;;;;;5027949;28;20057;-73
2022/07/21 11:39:24;;;;;;;7.65;2.10;;;19.00;99.90;;;;;;5029715;28;20108;-72
2022/07/21 11:41:51;;;;;;;3.17;1.63;;;19.00;99.90;;;;;;5028495;28;20132;-73
2022/07/21 11:44:24;;;;;;;4.90;2.15;;;19.10;99.90;;;;;;5029021;28;20393;-72
2022/07/21 11:46:55;;;;;;;3.70;1.83;;;19.10;99.90;;;;;;5027211;28;20025;-73
2022/07/21 11:49:21;;;;;;;3.42;1.55;;;19.10;99.90;;;;;;5029502;28;20067;-73
2022/07/21 11:51:55;;;;;;;3.90;2.00;;;19.10;99.90;;;;;;5029242;28;20033;-73
2022/07/21 11:54:28;;;;;;;2.67;1.50;;;19.10;99.90;;;;;;5029305;28;20033;-72
2022/07/21 11:56:55;;;;;;;3.63;1.42;;;19.10;99.90;;;;;;5028289;28;20041;-72
2022/07/21 11:59:22;;;;;;;4.90;1.40;;;19.10;99.90;;;;;;5027514;28;20068;-71
2022/07/21 12:01:59;;;;;;;6.53;1.50;;;19.00;99.90;;;;;;5027536;28;20440;-72
2022/07/21 12:04:33;;;;;;;3.35;2.00;;;19.00;99.90;;;;;;5026286;28;20117;-73
2022/07/21 12:06:59;;;;;;;3.88;1.35;;;19.00;99.90;;;;;;5028363;28;20037;-74
2022/07/21 12:09:25;;;;;;;3.55;1.33;;;19.00;99.90;;;;;;5029642;28;20029;-72
2022/07/21 12:11:51;;;;;;;2.22;1.08;;;18.90;99.90;;;;;;5029567;28;20086;-73
2022/07/21 12:14:17;;;;;;;3.60;1.13;;;19.00;99.90;;;;;;5028202;28;20405;-72
2022/07/21 12:16:50;;;;;;;5.13;1.30;;;19.00;99.90;;;;;;5028995;28;20724;-72
2022/07/21 12:19:17;;;;;;;1.75;0.88;;;18.90;99.90;;;;;;5028107;28;20042;-72
2022/07/21 12:21:47;;;;;;;2.95;0.70;;;19.00;99.90;;;;;;5028225;28;20064;-73
2022/07/21 12:24:13;;;;;;;;;;;18.90;99.90;;;;;;5026354;28;20080;-72
2022/07/21 12:26:39;;;;;;;2.30;0.60;;;19.00;99.90;;;;;;5026459;28;19917;-73
2022/07/21 12:29:04;;;;;;;2.70;1.38;;;19.00;99.90;;;;;;5027988;28;20041;-72
2022/07/21 12:31:33;;;;;;;1.63;0.90;;;19.10;99.90;;;;;;5029533;28;20037;-72
2022/07/21 12:34:11;;;;;;;5.45;1.55;;;19.20;99.90;;;;;;5027762;28;20047;-73
2022/07/21 12:36:37;;;;;;;0.60;0.50;;;19.30;99.90;;;;;;5028246;28;20033;-72
2022/07/21 12:42:07;;;;;;;2.90;0.75;;;19.30;99.90;;;;;;5027822;28;20041;-72
2022/07/21 12:44:34;;;;;;;3.33;0.80;;;19.40;99.90;;;;;;5027655;28;20559;-72
2022/07/21 12:47:20;;;;;;;4.60;1.15;;;19.30;99.90;;;;;;5027632;28;20041;-71
2022/07/21 12:50:02;;;;;;;4.80;0.90;;;19.30;99.90;;;;;;5024374;28;20148;-72